Time;durP1;ratioP1;P1;durP2;ratioP2;P2;SDS_P1;SDS_P2;PMS_P1;PMS_P2;Temp;Humidity;BMP_temperature;BMP_pressure;BME280_temperature;BME280_humidity;BME280_pressure;Samples;Min_cycle;Max_cycle;Signal;HPM_P1;HPM_P2
2022/09/07 00:00:49;;;;;;;3.97;2.20;;;23.40;62.30;;;;;;5034933;28;20212;-80
2022/09/07 00:03:16;;;;;;;2.80;2.40;;;23.40;62.50;;;;;;5033548;28;20234;-80
2022/09/07 00:05:44;;;;;;;4.10;2.10;;;23.30;62.50;;;;;;5033702;28;20192;-80
2022/09/07 00:08:12;;;;;;;4.68;2.15;;;23.30;62.50;;;;;;5033607;28;20204;-81
2022/09/07 00:10:39;;;;;;;3.25;2.30;;;23.30;62.30;;;;;;5034979;28;20212;-81
2022/09/07 00:13:07;;;;;;;5.60;2.20;;;23.30;62.10;;;;;;5033400;28;20595;-82
2022/09/07 00:15:34;;;;;;;2.55;2.10;;;23.30;62.20;;;;;;5033468;28;20204;-82
2022/09/07 00:18:02;;;;;;;2.38;2.17;;;23.30;62.10;;;;;;5033352;28;20196;-82
2022/09/07 00:20:29;;;;;;;3.42;2.10;;;23.30;62.30;;;;;;5033243;28;20215;-82
2022/09/07 00:22:57;;;;;;;4.07;2.22;;;23.30;62.40;;;;;;5033333;28;20192;-81
2022/09/07 00:25:25;;;;;;;2.00;1.80;;;23.30;62.30;;;;;;5033592;28;20647;-81
2022/09/07 00:27:53;;;;;;;4.53;2.10;;;23.30;62.20;;;;;;5033625;28;20262;-82
2022/09/07 00:30:20;;;;;;;3.92;2.20;;;23.30;62.40;;;;;;5034092;28;20262;-82
2022/09/07 00:32:48;;;;;;;3.58;2.03;;;23.30;62.30;;;;;;5033349;28;20282;-82
2022/09/07 00:35:15;;;;;;;2.78;2.17;;;23.30;62.50;;;;;;5033479;28;20291;-82
2022/09/07 00:37:42;;;;;;;4.00;2.13;;;23.20;62.30;;;;;;5033671;28;20212;-82
2022/09/07 00:40:10;;;;;;;2.58;1.98;;;23.30;62.40;;;;;;5033280;28;20258;-81
2022/09/07 00:42:39;;;;;;;3.58;1.83;;;23.20;62.10;;;;;;5032709;28;20191;-81
2022/09/07 00:45:09;;;;;;;2.80;2.00;;;23.20;62.20;;;;;;5032933;28;20660;-80
2022/09/07 00:47:40;;;;;;;4.40;1.80;;;23.20;62.00;;;;;;5033079;28;20204;-80
2022/09/07 00:50:10;;;;;;;3.38;2.25;;;23.20;62.50;;;;;;5032998;28;20247;-80
2022/09/07 00:52:37;;;;;;;3.80;2.10;;;23.20;62.40;;;;;;5033326;28;20215;-80
2022/09/07 00:55:08;;;;;;;1.67;1.58;;;23.20;62.30;;;;;;5032994;28;20200;-81
2022/09/07 00:57:35;;;;;;;2.90;1.75;;;23.10;62.30;;;;;;5033156;28;20204;-82
2022/09/07 01:00:07;;;;;;;3.33;1.88;;;23.20;62.30;;;;;;5016761;28;20262;-82
2022/09/07 01:02:34;;;;;;;3.65;2.05;;;23.10;62.10;;;;;;5033389;28;20190;-82
2022/09/07 01:05:04;;;;;;;2.42;1.90;;;23.20;62.20;;;;;;5034339;28;20200;-82
2022/09/07 01:07:31;;;;;;;2.65;1.95;;;23.10;62.00;;;;;;5033037;28;20200;-81
2022/09/07 01:09:59;;;;;;;3.70;2.10;;;23.10;62.10;;;;;;5033328;28;20216;-80
2022/09/07 01:12:26;;;;;;;2.10;1.90;;;23.10;62.90;;;;;;5032846;28;20222;-80
2022/09/07 01:14:54;;;;;;;3.00;1.50;;;23.10;61.90;;;;;;5039702;28;20231;-80
2022/09/07 01:17:27;;;;;;;2.03;1.80;;;23.10;61.90;;;;;;5054094;28;20260;-80
2022/09/07 01:20:10;;;;;;;2.00;1.60;;;23.10;62.00;;;;;;5032841;28;20231;-81
2022/09/07 01:22:59;;;;;;;3.20;1.83;;;23.10;61.80;;;;;;5032553;28;20218;-80
2022/09/07 01:25:32;;;;;;;2.85;2.03;;;23.10;62.00;;;;;;5033008;28;20672;-80
2022/09/07 01:28:08;;;;;;;2.08;1.50;;;23.10;62.20;;;;;;5032988;28;20196;-79
2022/09/07 01:30:37;;;;;;;4.90;1.90;;;23.10;62.00;;;;;;5032631;28;20228;-80
2022/09/07 01:33:33;;;;;;;2.40;1.80;;;23.10;61.80;;;;;;5032672;28;20212;-82
2022/09/07 01:36:05;;;;;;;2.83;1.90;;;23.10;61.90;;;;;;5032828;28;20783;-81
2022/09/07 01:38:36;;;;;;;3.60;2.03;;;23.10;61.80;;;;;;5032820;28;20195;-81
2022/09/07 01:41:06;;;;;;;2.13;1.73;;;23.10;62.00;;;;;;5032494;28;20219;-81
2022/09/07 01:43:37;;;;;;;1.75;1.65;;;23.10;61.80;;;;;;5032429;28;20238;-81
2022/09/07 01:46:06;;;;;;;3.50;1.80;;;23.00;61.80;;;;;;5032413;28;20739;-81
2022/09/07 01:48:35;;;;;;;2.30;2.08;;;23.10;62.00;;;;;;5032438;28;20272;-81
2022/09/07 01:51:03;;;;;;;2.70;1.90;;;23.00;62.50;;;;;;5032201;28;20215;-81
2022/09/07 01:53:32;;;;;;;4.13;1.65;;;23.10;62.00;;;;;;5034677;28;20342;-80
2022/09/07 01:56:01;;;;;;;2.67;1.90;;;23.00;61.70;;;;;;5036250;28;20230;-79
2022/09/07 01:58:30;;;;;;;1.90;1.75;;;23.00;61.90;;;;;;5036194;28;20246;-80
2022/09/07 02:01:00;;;;;;;3.53;1.73;;;23.00;62.10;;;;;;5036092;28;20216;-80
2022/09/07 02:03:30;;;;;;;2.17;1.55;;;23.00;61.90;;;;;;5035881;28;20287;-80
2022/09/07 02:05:59;;;;;;;2.50;1.98;;;23.00;61.70;;;;;;5036127;28;20195;-81
2022/09/07 02:08:27;;;;;;;2.42;1.85;;;23.00;62.00;;;;;;5035966;28;20662;-81
2022/09/07 02:10:57;;;;;;;2.72;1.70;;;23.00;61.90;;;;;;5038646;28;20238;-81
2022/09/07 02:13:27;;;;;;;2.10;1.90;;;23.00;61.90;;;;;;5042260;28;20302;-82
2022/09/07 02:15:55;;;;;;;3.63;2.15;;;23.00;61.90;;;;;;5043433;28;20200;-83
2022/09/07 02:18:24;;;;;;;2.58;1.80;;;23.00;62.10;;;;;;5044755;28;20254;-81
2022/09/07 02:20:53;;;;;;;2.30;1.90;;;23.00;61.70;;;;;;5045080;28;20588;-81
2022/09/07 02:23:22;;;;;;;2.53;1.90;;;23.00;61.70;;;;;;5044868;28;20216;-81
2022/09/07 02:25:52;;;;;;;2.85;2.10;;;23.00;61.70;;;;;;5045870;28;20196;-81
2022/09/07 02:28:22;;;;;;;3.05;2.10;;;23.00;61.70;;;;;;5046137;28;20219;-81
2022/09/07 02:30:49;;;;;;;2.42;2.00;;;23.00;61.70;;;;;;5047092;28;20311;-81
2022/09/07 02:33:17;;;;;;;3.92;2.22;;;23.00;61.70;;;;;;5046864;28;20224;-81
2022/09/07 02:35:46;;;;;;;3.80;2.00;;;23.00;61.60;;;;;;5049194;28;20200;-81
2022/09/07 02:38:13;;;;;;;2.85;2.08;;;23.00;61.60;;;;;;5052532;28;20203;-81
2022/09/07 02:40:41;;;;;;;3.08;2.08;;;23.00;61.50;;;;;;5045545;28;20319;-80
2022/09/07 02:43:08;;;;;;;3.20;1.90;;;23.00;61.50;;;;;;5035457;28;20215;-80
2022/09/07 02:45:42;;;;;;;3.65;2.00;;;23.00;61.50;;;;;;5035251;28;20665;-81
2022/09/07 02:48:14;;;;;;;2.05;1.85;;;23.00;61.40;;;;;;5035328;28;20200;-81
2022/09/07 02:50:53;;;;;;;3.22;2.15;;;23.00;61.20;;;;;;5035293;28;20216;-81
2022/09/07 02:53:38;;;;;;;5.13;2.28;;;23.10;61.40;;;;;;5035049;28;20222;-79
2022/09/07 02:56:11;;;;;;;2.40;1.95;;;23.10;61.40;;;;;;5040883;28;20207;-79
2022/09/07 02:58:43;;;;;;;3.58;2.05;;;23.10;61.50;;;;;;5035000;28;20192;-80
2022/09/07 03:01:16;;;;;;;3.17;2.08;;;23.10;61.50;;;;;;5035389;28;20584;-79
2022/09/07 03:03:46;;;;;;;4.43;2.30;;;23.10;61.80;;;;;;5034315;28;20582;-79
2022/09/07 03:06:19;;;;;;;2.88;2.20;;;23.00;61.30;;;;;;5034902;28;20215;-79
2022/09/07 03:08:48;;;;;;;5.00;2.20;;;23.10;61.20;;;;;;5034777;28;20199;-79
2022/09/07 03:11:15;;;;;;;3.95;2.22;;;23.10;61.10;;;;;;5036369;28;20243;-80
2022/09/07 03:13:43;;;;;;;3.67;2.40;;;23.10;61.50;;;;;;5035126;28;20207;-81
2022/09/07 03:16:12;;;;;;;3.92;2.17;;;23.10;61.30;;;;;;5035083;28;20573;-81
2022/09/07 03:18:40;;;;;;;2.95;2.25;;;23.10;61.40;;;;;;5034784;28;20203;-81
2022/09/07 03:21:07;;;;;;;6.00;2.15;;;23.10;61.50;;;;;;5034938;28;20222;-81
2022/09/07 03:23:36;;;;;;;3.20;2.30;;;23.10;61.20;;;;;;5034791;28;20196;-80
2022/09/07 03:26:03;;;;;;;4.20;2.53;;;23.20;61.30;;;;;;5034568;28;20196;-80
2022/09/07 03:28:31;;;;;;;4.38;2.30;;;23.20;61.10;;;;;;5035372;28;20258;-81
2022/09/07 03:30:58;;;;;;;3.70;2.25;;;23.30;61.00;;;;;;5034418;28;20625;-82
2022/09/07 03:33:25;;;;;;;3.35;2.45;;;23.30;60.90;;;;;;5034142;28;20593;-81
2022/09/07 03:36:00;;;;;;;5.00;2.20;;;23.40;60.80;;;;;;5034340;28;20214;-82
2022/09/07 03:38:27;;;;;;;2.17;1.98;;;23.40;60.70;;;;;;5034146;28;20293;-81
2022/09/07 03:41:00;;;;;;;3.17;1.98;;;23.50;61.30;;;;;;5034059;28;20212;-81
2022/09/07 03:43:27;;;;;;;3.25;1.95;;;23.50;60.30;;;;;;5033978;28;20242;-82
2022/09/07 03:45:58;;;;;;;3.63;2.10;;;23.60;60.10;;;;;;5034878;28;20231;-81
2022/09/07 03:48:26;;;;;;;3.95;2.40;;;23.60;60.10;;;;;;5033907;28;20199;-82
2022/09/07 03:50:58;;;;;;;3.63;1.90;;;23.60;60.00;;;;;;5033789;28;20220;-80
2022/09/07 03:53:25;;;;;;;3.35;2.08;;;23.70;60.10;;;;;;5034079;28;20270;-80
2022/09/07 03:55:57;;;;;;;2.90;2.20;;;23.60;60.10;;;;;;5034442;28;20272;-81
2022/09/07 03:58:26;;;;;;;3.75;2.20;;;23.70;59.90;;;;;;5034421;28;20200;-82
2022/09/07 04:00:53;;;;;;;3.00;2.20;;;23.70;59.90;;;;;;5033712;28;20219;-81
2022/09/07 04:03:20;;;;;;;4.15;2.05;;;23.70;59.80;;;;;;5033705;28;20222;-81
2022/09/07 04:05:47;;;;;;;3.60;2.10;;;23.70;59.80;;;;;;5033653;28;20199;-81
2022/09/07 04:08:14;;;;;;;5.03;2.20;;;23.70;59.70;;;;;;5033823;28;20250;-81
2022/09/07 04:10:42;;;;;;;4.90;2.55;;;23.70;59.70;;;;;;5033571;28;20215;-81
2022/09/07 04:13:09;;;;;;;2.58;1.90;;;23.70;59.70;;;;;;5033628;28;20228;-81
2022/09/07 04:15:38;;;;;;;2.65;1.90;;;23.70;59.60;;;;;;5032961;28;20231;-82
2022/09/07 04:18:05;;;;;;;3.67;2.05;;;23.70;59.60;;;;;;5033448;28;20230;-82
2022/09/07 04:20:32;;;;;;;2.83;2.15;;;23.70;59.70;;;;;;5033340;28;20294;-79
2022/09/07 04:22:59;;;;;;;3.53;2.17;;;23.70;59.70;;;;;;5033526;28;20195;-79
2022/09/07 04:25:26;;;;;;;5.00;2.20;;;23.70;59.70;;;;;;5033958;28;20188;-81
2022/09/07 04:27:53;;;;;;;3.20;1.90;;;23.70;59.70;;;;;;5033345;28;20200;-81
2022/09/07 04:30:20;;;;;;;4.10;2.03;;;23.70;59.70;;;;;;5033234;28;20700;-81
2022/09/07 04:32:49;;;;;;;3.95;2.15;;;23.60;59.60;;;;;;5033077;28;20647;-81
2022/09/07 04:35:17;;;;;;;3.22;2.03;;;23.60;59.70;;;;;;5033349;28;20226;-81
2022/09/07 04:37:44;;;;;;;2.90;1.90;;;23.60;59.70;;;;;;5034515;28;20652;-80
2022/09/07 04:40:12;;;;;;;2.95;1.80;;;23.50;59.80;;;;;;5033663;28;20315;-81
2022/09/07 04:42:39;;;;;;;5.03;2.33;;;23.50;59.90;;;;;;5033542;28;20204;-80
2022/09/07 04:45:07;;;;;;;3.85;2.15;;;23.50;59.80;;;;;;5032962;28;20295;-81
2022/09/07 04:47:34;;;;;;;5.57;2.53;;;23.50;60.50;;;;;;5032820;28;20204;-82
2022/09/07 04:50:02;;;;;;;4.45;2.30;;;23.40;59.90;;;;;;5032767;28;20235;-81
2022/09/07 04:52:29;;;;;;;4.90;2.28;;;23.40;60.00;;;;;;5032852;28;20204;-82
2022/09/07 04:54:56;;;;;;;2.88;2.08;;;23.40;60.10;;;;;;5032887;28;20212;-81
2022/09/07 04:57:25;;;;;;;4.00;2.10;;;23.40;60.30;;;;;;5033135;28;20238;-81
2022/09/07 04:59:52;;;;;;;3.45;2.17;;;23.30;60.10;;;;;;5032811;28;20220;-81
2022/09/07 05:02:19;;;;;;;2.72;1.95;;;23.30;60.20;;;;;;5033051;28;20211;-81
2022/09/07 05:04:47;;;;;;;3.03;1.90;;;23.30;60.40;;;;;;5032727;28;20210;-81
2022/09/07 05:07:16;;;;;;;3.85;1.75;;;23.30;60.40;;;;;;5033025;28;20234;-81
2022/09/07 05:09:43;;;;;;;3.90;2.00;;;23.30;60.40;;;;;;5033178;28;20200;-81
2022/09/07 05:12:10;;;;;;;3.75;2.30;;;23.30;60.50;;;;;;5033339;28;20196;-81
2022/09/07 05:14:37;;;;;;;2.00;1.80;;;23.20;60.30;;;;;;5032812;28;20264;-81
2022/09/07 05:17:04;;;;;;;2.20;2.00;;;23.20;60.40;;;;;;5032834;28;20203;-81
2022/09/07 05:19:32;;;;;;;2.42;2.00;;;23.20;60.50;;;;;;5032725;28;20283;-81
2022/09/07 05:21:59;;;;;;;3.20;2.03;;;23.20;60.50;;;;;;5032941;28;20287;-79
2022/09/07 05:24:27;;;;;;;2.42;2.03;;;23.20;60.80;;;;;;5032558;28;20661;-79
2022/09/07 05:26:55;;;;;;;3.15;2.00;;;23.20;60.40;;;;;;5032747;28;20207;-79
2022/09/07 05:29:22;;;;;;;3.35;2.25;;;23.20;60.50;;;;;;5036823;28;20196;-79
2022/09/07 05:31:49;;;;;;;2.53;2.20;;;23.20;60.70;;;;;;5042260;28;20708;-81
2022/09/07 05:34:16;;;;;;;4.22;1.90;;;23.10;60.40;;;;;;5045023;28;20241;-82
2022/09/07 05:36:44;;;;;;;2.85;2.00;;;23.10;60.50;;;;;;5043755;28;20212;-81
2022/09/07 05:39:11;;;;;;;4.78;1.90;;;23.10;60.70;;;;;;5044178;28;20200;-81
2022/09/07 05:41:39;;;;;;;3.28;1.92;;;23.20;60.60;;;;;;5044809;28;20215;-81
2022/09/07 05:44:07;;;;;;;2.45;1.98;;;23.20;60.60;;;;;;5037290;28;20238;-80
2022/09/07 05:46:34;;;;;;;5.28;2.28;;;23.20;60.60;;;;;;5036991;28;20570;-80
2022/09/07 05:49:02;;;;;;;4.28;2.05;;;23.30;60.50;;;;;;5037677;28;20248;-79
2022/09/07 05:51:29;;;;;;;5.63;2.25;;;23.30;60.40;;;;;;5039341;28;20310;-80
2022/09/07 05:53:56;;;;;;;3.80;2.00;;;23.40;60.20;;;;;;5040508;28;20203;-81
2022/09/07 05:56:25;;;;;;;2.22;2.03;;;23.50;60.90;;;;;;5036409;28;20204;-81
2022/09/07 05:58:54;;;;;;;3.53;2.13;;;23.50;59.90;;;;;;5036222;28;20631;-81
2022/09/07 06:01:21;;;;;;;3.70;2.20;;;23.60;59.70;;;;;;5035901;28;20289;-81
2022/09/07 06:03:48;;;;;;;3.20;2.20;;;23.70;59.50;;;;;;5036046;28;20703;-82
2022/09/07 06:06:15;;;;;;;4.38;2.13;;;23.80;59.40;;;;;;5036024;28;20200;-82
2022/09/07 06:08:47;;;;;;;5.65;2.25;;;23.90;59.20;;;;;;5038699;28;20219;-80
2022/09/07 06:11:15;;;;;;;3.17;2.45;;;23.90;59.00;;;;;;5041213;28;20220;-80
2022/09/07 06:13:43;;;;;;;3.65;2.05;;;24.00;59.00;;;;;;5038134;28;20232;-80
2022/09/07 06:16:12;;;;;;;5.25;2.20;;;24.00;58.80;;;;;;5036140;28;20571;-80
2022/09/07 06:18:41;;;;;;;3.17;1.98;;;24.00;58.70;;;;;;5035976;28;20674;-81
2022/09/07 06:21:09;;;;;;;3.67;2.22;;;24.10;58.80;;;;;;5036049;28;20231;-81
2022/09/07 06:23:37;;;;;;;5.00;2.30;;;24.10;58.60;;;;;;5036821;28;20199;-81
2022/09/07 06:26:04;;;;;;;4.13;2.38;;;24.30;58.30;;;;;;5041683;28;20187;-79
2022/09/07 06:28:32;;;;;;;3.20;2.10;;;24.50;58.10;;;;;;5050655;28;20706;-82
2022/09/07 06:31:00;;;;;;;3.33;2.50;;;24.60;57.50;;;;;;5043810;28;20230;-82
2022/09/07 06:33:29;;;;;;;4.50;2.25;;;24.90;57.40;;;;;;5050338;28;20211;-81
2022/09/07 06:35:57;;;;;;;3.85;2.10;;;25.00;56.90;;;;;;5055447;28;20675;-81
2022/09/07 06:38:27;;;;;;;3.28;2.22;;;25.20;57.00;;;;;;5055559;28;20195;-81
2022/09/07 06:40:54;;;;;;;3.55;2.15;;;25.40;56.10;;;;;;5053439;28;20223;-81
2022/09/07 06:43:22;;;;;;;3.08;2.17;;;25.60;55.70;;;;;;5036224;28;20214;-80
2022/09/07 06:45:53;;;;;;;5.95;2.30;;;25.70;55.60;;;;;;5036720;28;20192;-81
2022/09/07 06:48:20;;;;;;;3.72;2.50;;;25.90;55.20;;;;;;5036180;28;20195;-80
2022/09/07 06:50:57;;;;;;;4.20;2.33;;;26.00;54.80;;;;;;5035679;28;20219;-80
2022/09/07 06:53:24;;;;;;;3.50;2.03;;;26.00;55.10;;;;;;5036591;28;20191;-82
2022/09/07 06:55:52;;;;;;;3.60;2.15;;;26.10;55.00;;;;;;5036420;28;20247;-82
2022/09/07 06:58:19;;;;;;;4.40;2.65;;;26.10;54.90;;;;;;5036359;28;20246;-81
2022/09/07 07:00:46;;;;;;;4.45;2.40;;;26.20;54.80;;;;;;5036285;28;20223;-81
2022/09/07 07:03:13;;;;;;;6.03;2.50;;;26.20;54.70;;;;;;5035769;28;20258;-81
2022/09/07 07:05:40;;;;;;;3.97;2.20;;;26.10;54.70;;;;;;5036584;28;20179;-81
2022/09/07 07:08:09;;;;;;;4.90;2.58;;;26.10;54.80;;;;;;5036853;28;20311;-82
2022/09/07 07:10:39;;;;;;;3.08;2.28;;;26.10;54.80;;;;;;5037074;28;20215;-82
2022/09/07 07:13:06;;;;;;;4.03;2.40;;;26.00;55.00;;;;;;5037491;28;20195;-83
2022/09/07 07:15:34;;;;;;;3.13;2.60;;;25.90;55.10;;;;;;5036208;28;20215;-82
2022/09/07 07:18:01;;;;;;;5.28;2.85;;;25.90;55.00;;;;;;5035451;28;20201;-82
2022/09/07 07:20:28;;;;;;;4.60;2.63;;;26.00;54.80;;;;;;5036071;28;20293;-80
2022/09/07 07:22:56;;;;;;;4.05;2.30;;;26.20;54.50;;;;;;5036500;28;20627;-81
2022/09/07 07:25:25;;;;;;;3.75;2.50;;;26.30;54.20;;;;;;5035372;28;20709;-80
2022/09/07 07:27:52;;;;;;;3.63;2.38;;;26.50;53.80;;;;;;5035125;28;20218;-80
2022/09/07 07:30:20;;;;;;;4.53;2.70;;;26.70;53.70;;;;;;5041172;28;20589;-81
2022/09/07 07:32:47;;;;;;;5.63;2.72;;;26.80;53.30;;;;;;5052254;28;20198;-81
2022/09/07 07:35:15;;;;;;;7.47;2.78;;;26.90;53.00;;;;;;5059285;28;20235;-81
2022/09/07 07:37:43;;;;;;;3.35;2.42;;;27.00;52.80;;;;;;5054370;28;20626;-82
2022/09/07 07:40:12;;;;;;;4.78;2.75;;;27.10;52.80;;;;;;5052796;28;20250;-81
2022/09/07 07:42:41;;;;;;;4.55;2.30;;;27.10;52.60;;;;;;5057094;28;20199;-83
2022/09/07 07:45:10;;;;;;;5.20;2.40;;;27.20;52.70;;;;;;5054423;28;20181;-84
2022/09/07 07:47:37;;;;;;;3.38;2.40;;;27.20;53.50;;;;;;5054466;28;20681;-84
2022/09/07 07:50:05;;;;;;;4.95;2.90;;;27.20;53.80;;;;;;5053626;28;20661;-84
2022/09/07 07:52:34;;;;;;;5.72;2.95;;;27.00;55.20;;;;;;5054770;28;20290;-84
2022/09/07 07:55:01;;;;;;;13.57;6.20;;;27.00;54.50;;;;;;5055623;28;20215;-83
2022/09/07 07:57:28;;;;;;;32.92;14.43;;;27.00;54.80;;;;;;5057875;28;20662;-84
2022/09/07 07:59:57;;;;;;;22.60;11.55;;;27.00;54.80;;;;;;5054917;28;20229;-83
2022/09/07 08:02:24;;;;;;;15.45;7.70;;;27.10;54.80;;;;;;5054262;28;20202;-82
2022/09/07 08:04:52;;;;;;;8.98;4.60;;;27.20;54.20;;;;;;5050336;28;20571;-83
2022/09/07 08:07:19;;;;;;;11.30;4.00;;;27.30;54.70;;;;;;5033878;28;20294;-83
2022/09/07 08:09:48;;;;;;;6.55;3.08;;;27.30;54.40;;;;;;5035664;28;20216;-83
2022/09/07 08:12:16;;;;;;;5.50;2.80;;;27.40;54.00;;;;;;5034426;28;20199;-83
2022/09/07 08:14:43;;;;;;;8.30;2.53;;;27.40;53.20;;;;;;5033900;28;20306;-83
2022/09/07 08:17:12;;;;;;;4.68;2.30;;;27.40;52.90;;;;;;5034194;28;20199;-83
2022/09/07 08:19:40;;;;;;;7.43;2.53;;;27.40;53.40;;;;;;5034539;28;20338;-83
2022/09/07 08:22:07;;;;;;;5.93;2.55;;;27.40;52.70;;;;;;5033689;28;20191;-83
2022/09/07 08:24:34;;;;;;;4.78;2.50;;;27.40;52.20;;;;;;5033541;28;20226;-83
2022/09/07 08:27:01;;;;;;;5.47;2.30;;;27.40;53.00;;;;;;5050338;28;20195;-83
2022/09/07 08:29:28;;;;;;;4.45;2.20;;;27.50;52.70;;;;;;5033727;28;20208;-83
2022/09/07 08:31:56;;;;;;;4.32;2.20;;;27.60;52.40;;;;;;5036617;28;20188;-83
2022/09/07 08:34:24;;;;;;;5.82;2.63;;;27.70;52.20;;;;;;5034441;28;20200;-83
2022/09/07 08:36:51;;;;;;;5.15;2.20;;;27.80;52.00;;;;;;5034349;28;20656;-83
2022/09/07 08:39:19;;;;;;;4.97;2.47;;;27.90;51.60;;;;;;5033628;28;20203;-83
2022/09/07 08:41:56;;;;;;;7.00;2.60;;;28.00;51.60;;;;;;5034085;28;20777;-82
2022/09/07 08:44:24;;;;;;;6.25;2.83;;;28.10;51.10;;;;;;5034307;28;20266;-82
2022/09/07 08:46:53;;;;;;;8.20;2.35;;;28.20;50.80;;;;;;5034156;28;20199;-81
2022/09/07 08:49:25;;;;;;;6.75;2.60;;;28.30;50.50;;;;;;5036252;28;20207;-82
2022/09/07 08:51:54;;;;;;;5.15;2.40;;;28.30;49.80;;;;;;5035159;28;20219;-82
2022/09/07 08:54:21;;;;;;;7.13;2.60;;;28.30;49.80;;;;;;5036328;28;20652;-83
2022/09/07 08:56:50;;;;;;;5.78;2.40;;;28.40;49.90;;;;;;5036352;28;20199;-82
2022/09/07 08:59:20;;;;;;;7.43;2.65;;;28.30;50.00;;;;;;5037260;28;20226;-82
2022/09/07 09:01:47;;;;;;;6.63;2.42;;;28.30;50.00;;;;;;5038111;28;20360;-82
2022/09/07 09:04:18;;;;;;;4.40;2.40;;;28.40;49.70;;;;;;5038301;28;20297;-82
2022/09/07 09:06:53;;;;;;;6.43;2.60;;;28.50;49.60;;;;;;5039234;28;20196;-83
2022/09/07 09:09:24;;;;;;;6.22;2.80;;;28.50;50.00;;;;;;5036143;28;20206;-81
2022/09/07 09:11:53;;;;;;;5.15;2.55;;;28.50;49.90;;;;;;5039360;28;20215;-83
2022/09/07 09:14:27;;;;;;;6.25;3.00;;;28.50;50.00;;;;;;5044911;28;20196;-83
2022/09/07 09:16:55;;;;;;;8.13;2.92;;;28.50;49.80;;;;;;5059827;28;20713;-82
2022/09/07 09:19:30;;;;;;;6.30;2.80;;;28.60;49.80;;;;;;5064669;28;20651;-83
2022/09/07 09:22:14;;;;;;;5.05;2.90;;;28.60;49.80;;;;;;5054153;28;20206;-83
2022/09/07 09:24:45;;;;;;;6.38;3.38;;;28.60;49.70;;;;;;5053296;28;20190;-83
2022/09/07 09:27:16;;;;;;;7.32;2.65;;;28.70;49.80;;;;;;5053929;28;20226;-83
2022/09/07 09:29:43;;;;;;;4.55;2.47;;;28.70;49.60;;;;;;5052959;28;20582;-83
2022/09/07 09:32:32;;;;;;;4.10;2.60;;;28.60;49.00;;;;;;5052838;28;20631;-83
2022/09/07 09:35:01;;;;;;;5.53;2.65;;;28.60;49.10;;;;;;5052292;28;20222;-83
2022/09/07 09:37:35;;;;;;;6.05;2.53;;;28.60;49.00;;;;;;5052590;28;20194;-85
2022/09/07 09:40:32;;;;;;;4.95;2.40;;;28.60;48.80;;;;;;5053570;28;20565;-85
2022/09/07 09:43:01;;;;;;;4.75;2.75;;;28.70;48.80;;;;;;5050276;28;20202;-85
2022/09/07 09:45:29;;;;;;;4.85;2.83;;;28.70;48.70;;;;;;5054043;28;20199;-85
2022/09/07 09:47:56;;;;;;;6.45;2.88;;;28.70;48.90;;;;;;5052417;28;20289;-85
2022/09/07 09:50:25;;;;;;;4.25;2.78;;;28.70;48.60;;;;;;5054090;28;20712;-85
2022/09/07 09:52:54;;;;;;;5.75;2.80;;;28.60;48.90;;;;;;5055790;28;20233;-85
2022/09/07 09:55:26;;;;;;;5.88;2.90;;;28.60;49.30;;;;;;5055699;28;20322;-85
2022/09/07 09:57:56;;;;;;;8.18;3.42;;;28.50;49.50;;;;;;5053736;28;20222;-86
2022/09/07 10:00:24;;;;;;;6.63;3.25;;;28.40;50.30;;;;;;5053310;28;20218;-85
2022/09/07 10:03:22;;;;;;;5.93;3.25;;;28.40;50.70;;;;;;5055550;28;20207;-86
2022/09/07 10:05:53;;;;;;;6.95;2.90;;;28.30;50.90;;;;;;5055152;28;20299;-86
2022/09/07 10:08:23;;;;;;;4.85;2.95;;;28.30;50.30;;;;;;5053501;28;20294;-85
2022/09/07 10:10:52;;;;;;;5.25;2.90;;;28.30;50.50;;;;;;5053630;28;20717;-86
2022/09/07 10:13:20;;;;;;;7.70;3.30;;;28.20;50.20;;;;;;5055436;28;20198;-86
2022/09/07 10:15:51;;;;;;;8.55;3.15;;;28.20;50.90;;;;;;5056222;28;20588;-87
2022/09/07 10:18:20;;;;;;;10.48;3.40;;;28.20;50.50;;;;;;5056534;28;20209;-85
2022/09/07 10:20:47;;;;;;;6.28;2.70;;;28.20;50.50;;;;;;5056214;28;20241;-86
2022/09/07 10:23:22;;;;;;;6.28;3.00;;;28.20;50.40;;;;;;5056481;28;20198;-85
2022/09/07 10:25:49;;;;;;;4.65;2.60;;;28.20;50.80;;;;;;5053188;28;20194;-86
2022/09/07 10:28:18;;;;;;;6.68;2.65;;;28.20;50.90;;;;;;5056257;28;20690;-86
2022/09/07 10:30:55;;;;;;;6.30;2.80;;;28.10;50.70;;;;;;5056037;28;20214;-86
2022/09/07 10:33:25;;;;;;;6.45;2.50;;;28.10;50.70;;;;;;5056488;28;20223;-86
2022/09/07 10:35:54;;;;;;;4.97;2.75;;;28.00;51.40;;;;;;5055809;28;20251;-86
2022/09/07 10:38:23;;;;;;;8.75;3.00;;;28.10;50.90;;;;;;5055789;28;20213;-85
2022/09/07 10:40:53;;;;;;;6.10;2.90;;;28.10;50.50;;;;;;5055626;28;20225;-82
2022/09/07 10:43:32;;;;;;;3.70;2.63;;;28.00;50.10;;;;;;5055398;28;20205;-82
2022/09/07 10:46:25;;;;;;;6.57;2.72;;;27.90;50.00;;;;;;5055692;28;20302;-82
2022/09/07 10:49:08;;;;;;;6.47;2.67;;;27.90;49.90;;;;;;5055731;28;20245;-83
2022/09/07 10:51:36;;;;;;;7.78;3.10;;;27.80;50.30;;;;;;5055579;28;20636;-83
2022/09/07 10:54:10;;;;;;;4.20;2.72;;;27.80;50.50;;;;;;5055597;28;20190;-83
2022/09/07 10:56:41;;;;;;;5.25;2.63;;;27.70;50.60;;;;;;5057375;28;20227;-83
2022/09/07 10:59:15;;;;;;;5.00;2.63;;;27.60;50.90;;;;;;5058149;28;20266;-83
2022/09/07 11:01:48;;;;;;;5.03;2.47;;;27.60;51.30;;;;;;5056989;28;20641;-83
2022/09/07 11:04:37;;;;;;;9.13;2.97;;;27.60;50.80;;;;;;5055563;28;20237;-82
2022/09/07 11:07:11;;;;;;;6.00;2.60;;;27.60;50.70;;;;;;5057767;28;20183;-82
2022/09/07 11:10:01;;;;;;;4.82;2.65;;;27.60;50.80;;;;;;5056456;28;20219;-82
2022/09/07 11:12:33;;;;;;;3.78;2.58;;;27.50;50.80;;;;;;5048630;28;20192;-82
2022/09/07 11:15:06;;;;;;;8.82;3.05;;;27.50;51.30;;;;;;5035343;28;20200;-83
2022/09/07 11:17:40;;;;;;;6.03;2.90;;;27.40;51.70;;;;;;5035297;28;20216;-83
2022/09/07 11:20:11;;;;;;;5.43;2.47;;;27.30;51.90;;;;;;5035176;28;20265;-83
2022/09/07 11:22:42;;;;;;;8.43;3.33;;;27.30;52.00;;;;;;5035341;28;20192;-82
2022/09/07 11:25:16;;;;;;;7.05;3.15;;;27.30;52.20;;;;;;5036328;28;20218;-82
2022/09/07 11:27:46;;;;;;;7.82;3.05;;;27.20;52.40;;;;;;5035415;28;20199;-83
2022/09/07 11:30:19;;;;;;;6.88;3.30;;;27.20;52.50;;;;;;5037643;28;20230;-82
2022/09/07 11:32:53;;;;;;;7.80;3.38;;;27.20;52.80;;;;;;5041843;28;20207;-83
2022/09/07 11:35:25;;;;;;;9.18;3.10;;;27.20;53.30;;;;;;5035841;28;20230;-81
2022/09/07 11:37:58;;;;;;;7.50;3.50;;;27.20;53.30;;;;;;5034815;28;20184;-82
2022/09/07 11:40:28;;;;;;;5.45;3.38;;;27.10;53.40;;;;;;5034666;28;20776;-83
2022/09/07 11:42:58;;;;;;;8.43;3.80;;;27.10;53.20;;;;;;5034622;28;20203;-83
2022/09/07 11:45:28;;;;;;;5.93;3.10;;;27.10;53.20;;;;;;5034210;28;20266;-83
2022/09/07 11:47:58;;;;;;;7.72;3.65;;;27.10;53.30;;;;;;5035064;28;20199;-82
2022/09/07 11:50:25;;;;;;;5.68;3.20;;;27.10;53.50;;;;;;5034491;28;20695;-83
2022/09/07 11:52:53;;;;;;;6.40;3.60;;;27.10;53.40;;;;;;5034422;28;20253;-83
2022/09/07 11:55:24;;;;;;;6.97;3.35;;;27.10;53.30;;;;;;5034318;28;20269;-83
2022/09/07 11:58:21;;;;;;;6.55;3.75;;;27.10;53.40;;;;;;5035166;28;20191;-83
2022/09/07 12:00:52;;;;;;;5.40;3.03;;;27.20;53.40;;;;;;5032550;28;20215;-83
2022/09/07 12:03:30;;;;;;;6.50;3.28;;;27.20;53.50;;;;;;5036511;28;20199;-83
2022/09/07 12:06:28;;;;;;;6.00;3.05;;;27.20;53.30;;;;;;5036862;28;20205;-84
2022/09/07 12:09:03;;;;;;;7.10;3.65;;;27.20;53.30;;;;;;5042596;28;20199;-83
2022/09/07 12:11:42;;;;;;;7.10;3.40;;;27.20;53.30;;;;;;5053498;28;20594;-83
2022/09/07 12:14:21;;;;;;;5.07;3.05;;;27.20;53.30;;;;;;5053728;28;20215;-83
2022/09/07 12:16:59;;;;;;;7.40;3.10;;;27.20;53.30;;;;;;5053825;28;20206;-83
2022/09/07 12:19:28;;;;;;;5.90;3.25;;;27.20;53.30;;;;;;5053725;28;20190;-83
2022/09/07 12:21:56;;;;;;;7.43;3.20;;;27.20;53.30;;;;;;5054039;28;20694;-82
2022/09/07 12:24:40;;;;;;;4.43;2.97;;;27.20;53.40;;;;;;5053682;28;20210;-83
2022/09/07 12:27:36;;;;;;;7.72;3.03;;;27.20;53.30;;;;;;5048123;28;20191;-82
2022/09/07 12:30:43;;;;;;;4.82;2.83;;;27.20;53.40;;;;;;5033315;28;20723;-82
2022/09/07 12:33:30;;;;;;;5.35;3.03;;;27.20;53.50;;;;;;5027280;28;20203;-83
2022/09/07 12:35:59;;;;;;;5.45;2.70;;;27.20;53.40;;;;;;5033314;28;20671;-83
2022/09/07 12:39:04;;;;;;;5.22;3.05;;;27.20;53.50;;;;;;5035234;28;20253;-83
2022/09/07 12:41:43;;;;;;;5.25;3.10;;;27.20;53.40;;;;;;5041129;28;20231;-83
2022/09/07 12:44:16;;;;;;;4.70;2.95;;;27.20;53.50;;;;;;5041788;28;20238;-84
2022/09/07 12:46:54;;;;;;;7.40;3.33;;;27.20;53.50;;;;;;5039988;28;20285;-83
2022/09/07 12:49:45;;;;;;;6.38;3.40;;;27.20;53.50;;;;;;5056966;28;20209;-83
2022/09/07 12:52:48;;;;;;;6.07;3.13;;;27.20;53.60;;;;;;5059105;28;20701;-83
2022/09/07 12:55:44;;;;;;;7.70;3.70;;;27.20;53.50;;;;;;5035109;28;20208;-83
2022/09/07 12:58:21;;;;;;;5.45;3.58;;;27.20;53.60;;;;;;5066133;28;20202;-83
2022/09/07 13:00:54;;;;;;;5.97;3.60;;;27.20;53.60;;;;;;5067890;28;20237;-82
2022/09/07 13:03:44;;;;;;;6.95;3.40;;;27.20;53.60;;;;;;5059684;28;20191;-82